Time;durP1;ratioP1;P1;durP2;ratioP2;P2;SDS_P1;SDS_P2;PMS_P1;PMS_P2;Temp;Humidity;BMP_temperature;BMP_pressure;BME280_temperature;BME280_humidity;BME280_pressure;Samples;Min_cycle;Max_cycle;Signal;HPM_P1;HPM_P2
2023/02/02 00:01:14;;;;;;;9.40;2.47;;;;;;;7.03;100.00;100791.03;5036878;28;20235;-77
2023/02/02 00:03:42;;;;;;;8.30;2.30;;;;;;;6.99;100.00;100793.84;5035940;28;20226;-78
2023/02/02 00:06:09;;;;;;;4.72;2.35;;;;;;;7.04;100.00;100808.84;5037051;28;20259;-77
2023/02/02 00:08:37;;;;;;;4.47;2.10;;;;;;;7.04;100.00;100813.34;5036093;28;20201;-78
2023/02/02 00:11:04;;;;;;;8.88;2.40;;;;;;;7.07;100.00;100806.09;5036089;28;20580;-77
2023/02/02 00:13:31;;;;;;;9.68;2.10;;;;;;;6.96;100.00;100810.81;5036583;28;20291;-76
2023/02/02 00:15:58;;;;;;;6.38;2.40;;;;;;;7.00;100.00;100817.88;5041672;28;20209;-76
2023/02/02 00:18:24;;;;;;;6.70;2.42;;;;;;;7.03;100.00;100817.81;5037163;28;20576;-77
2023/02/02 00:20:54;;;;;;;9.45;1.80;;;;;;;7.05;100.00;100825.81;5035881;28;20223;-77
2023/02/02 00:23:20;;;;;;;6.43;2.58;;;;;;;7.02;100.00;100815.19;5035808;28;20303;-76
2023/02/02 00:25:49;;;;;;;3.97;2.28;;;;;;;7.03;100.00;100815.16;5036780;28;20205;-77
2023/02/02 00:28:16;;;;;;;6.25;2.60;;;;;;;7.07;100.00;100813.25;5035993;28;20600;-76
2023/02/02 00:30:44;;;;;;;7.18;2.45;;;;;;;7.05;100.00;100815.97;5036643;28;20208;-77
2023/02/02 00:33:10;;;;;;;5.97;2.75;;;;;;;7.07;100.00;100810.56;5035877;28;20207;-77
2023/02/02 00:35:40;;;;;;;6.88;2.22;;;;;;;7.07;100.00;100818.63;5036230;28;20202;-77
2023/02/02 00:38:08;;;;;;;6.90;2.97;;;;;;;7.08;100.00;100821.25;5035384;28;20211;-77
2023/02/02 00:40:35;;;;;;;8.57;3.58;;;;;;;7.09;100.00;100800.72;5037094;28;20207;-77
2023/02/02 00:43:01;;;;;;;7.20;2.63;;;;;;;7.13;100.00;100807.75;5037150;28;20216;-78
2023/02/02 00:45:27;;;;;;;4.97;2.75;;;;;;;7.10;100.00;100798.00;5036587;28;20577;-80
2023/02/02 00:47:54;;;;;;;7.17;3.13;;;;;;;7.13;100.00;100806.88;5034777;28;20223;-77
2023/02/02 00:50:21;;;;;;;6.75;2.80;;;;;;;7.19;100.00;100802.25;5034779;28;20200;-77
2023/02/02 00:52:48;;;;;;;6.88;4.15;;;;;;;7.18;100.00;100808.50;5034920;28;20207;-77
2023/02/02 00:55:17;;;;;;;3.88;2.25;;;;;;;7.25;100.00;100822.63;5035474;28;20720;-78
2023/02/02 00:57:44;;;;;;;6.15;2.33;;;;;;;7.25;100.00;100828.88;5034763;28;20211;-77
2023/02/02 01:00:15;;;;;;;10.32;3.08;;;;;;;7.20;100.00;100830.78;5034489;28;20299;-76
2023/02/02 01:02:42;;;;;;;7.10;3.13;;;;;;;7.19;100.00;100837.09;5034970;28;20253;-76
2023/02/02 01:05:09;;;;;;;9.27;3.40;;;;;;;7.20;100.00;100835.28;5036039;28;20314;-77
2023/02/02 01:07:35;;;;;;;7.85;2.90;;;;;;;7.17;100.00;100830.88;5034377;28;20243;-77
2023/02/02 01:10:02;;;;;;;6.57;2.97;;;;;;;7.18;100.00;100840.66;5034842;28;20207;-77
2023/02/02 01:12:30;;;;;;;7.22;3.08;;;;;;;7.27;100.00;100836.88;5035904;28;20208;-77
2023/02/02 01:14:57;;;;;;;8.38;3.28;;;;;;;7.19;100.00;100834.41;5042192;28;20613;-77
2023/02/02 01:17:23;;;;;;;8.55;2.80;;;;;;;7.23;100.00;100843.22;5040292;28;20293;-77
2023/02/02 01:19:50;;;;;;;9.32;2.78;;;;;;;7.14;100.00;100838.97;5046057;28;20269;-76
2023/02/02 01:22:17;;;;;;;8.05;2.88;;;;;;;7.14;100.00;100832.75;5049465;28;20233;-77
2023/02/02 01:24:43;;;;;;;4.82;2.50;;;;;;;7.19;100.00;100833.50;5047678;28;20292;-77
2023/02/02 01:27:10;;;;;;;7.55;2.58;;;;;;;7.21;100.00;100834.34;5049781;28;20209;-77
2023/02/02 01:29:38;;;;;;;9.68;4.10;;;;;;;7.23;100.00;100841.41;5037413;28;20209;-77
2023/02/02 01:32:05;;;;;;;7.30;2.97;;;;;;;7.20;100.00;100838.81;5035764;28;20228;-77
2023/02/02 01:34:31;;;;;;;7.20;2.42;;;;;;;7.21;100.00;100847.72;5040334;28;20250;-77
2023/02/02 01:36:58;;;;;;;9.23;2.95;;;;;;;7.13;100.00;100847.06;5042116;28;20207;-76
2023/02/02 01:39:24;;;;;;;5.00;2.30;;;;;;;7.20;100.00;100841.50;5040119;28;20200;-76
2023/02/02 01:41:51;;;;;;;5.63;2.03;;;;;;;7.16;100.00;100842.50;5040181;28;20273;-77
2023/02/02 01:44:55;;;;;;;9.65;2.88;;;;;;;7.20;100.00;100852.22;5040307;28;20228;-77
2023/02/02 01:47:28;;;;;;;4.40;1.85;;;;;;;7.20;100.00;100860.25;5040930;28;20207;-76
2023/02/02 01:49:55;;;;;;;4.35;2.28;;;;;;;7.24;100.00;100864.63;5041436;28;20275;-76
2023/02/02 01:52:25;;;;;;;6.55;2.20;;;;;;;7.23;100.00;100868.22;5039618;28;20284;-75
2023/02/02 01:54:59;;;;;;;3.60;1.90;;;;;;;7.21;100.00;100859.34;5036515;28;20786;-77
2023/02/02 01:57:30;;;;;;;9.07;3.17;;;;;;;7.18;100.00;100859.41;5036940;28;20242;-77
2023/02/02 02:00:00;;;;;;;5.05;2.10;;;;;;;7.19;100.00;100855.84;5039959;28;20611;-77
2023/02/02 02:02:30;;;;;;;3.88;1.95;;;;;;;7.20;100.00;100860.25;5038770;28;20231;-76
2023/02/02 02:04:58;;;;;;;4.10;2.15;;;;;;;7.19;100.00;100838.84;5040307;28;20291;-77
2023/02/02 02:07:24;;;;;;;5.43;2.13;;;;;;;7.20;100.00;100862.94;5037764;28;20204;-77
2023/02/02 02:09:51;;;;;;;9.18;2.50;;;;;;;7.20;100.00;100859.38;5035008;28;20209;-77
2023/02/02 02:12:17;;;;;;;8.80;2.92;;;;;;;7.20;100.00;100843.31;5035894;28;20300;-77
2023/02/02 02:17:46;;;;;;;4.47;2.20;;;;;;;7.18;100.00;100847.81;5055209;28;20226;-78
2023/02/02 02:27:23;;;;;;;6.55;2.05;;;;;;;7.21;100.00;100843.28;4953376;29;20577;-76
2023/02/02 02:30:34;;;;;;;3.95;2.40;;;;;;;7.21;100.00;100842.38;4952910;29;20215;-76
2023/02/02 02:33:05;;;;;;;3.70;1.73;;;;;;;7.20;100.00;100841.50;4953328;29;20199;-77
2023/02/02 02:35:36;;;;;;;3.30;2.20;;;;;;;7.20;100.00;100846.88;4953934;29;20188;-77
2023/02/02 02:38:09;;;;;;;4.45;2.50;;;;;;;7.15;100.00;100838.06;4953270;29;20299;-77
2023/02/02 02:40:42;;;;;;;6.88;2.42;;;;;;;7.14;100.00;100854.16;4954027;29;20196;-76
2023/02/02 02:43:13;;;;;;;7.63;2.55;;;;;;;7.10;100.00;100851.56;4954723;29;20326;-77
2023/02/02 02:45:43;;;;;;;3.78;2.10;;;;;;;7.06;100.00;100857.03;4968170;29;20190;-77
2023/02/02 02:48:14;;;;;;;10.02;2.85;;;;;;;7.06;100.00;100854.38;4973332;29;20215;-77
2023/02/02 02:50:41;;;;;;;8.68;3.00;;;;;;;7.02;100.00;100850.00;4970180;29;20212;-77
2023/02/02 02:53:11;;;;;;;8.20;2.90;;;;;;;7.08;100.00;100853.41;4966121;29;20208;-77
2023/02/02 02:55:47;;;;;;;7.57;2.13;;;;;;;7.02;100.00;100845.50;4957603;29;20708;-76
2023/02/02 02:58:21;;;;;;;7.60;2.53;;;;;;;6.97;100.00;100852.78;4955436;29;20207;-77
2023/02/02 03:01:10;;;;;;;7.05;2.88;;;;;;;6.93;100.00;100842.16;4954187;29;20206;-77
2023/02/02 03:04:05;;;;;;;5.55;2.05;;;;;;;6.93;100.00;100851.06;4979632;28;20615;-76
2023/02/02 03:06:41;;;;;;;6.88;2.50;;;;;;;6.87;100.00;100846.75;5034357;28;20208;-77
2023/02/02 03:09:10;;;;;;;6.35;2.70;;;;;;;6.93;100.00;100853.75;5036564;28;20603;-77
2023/02/02 03:11:37;;;;;;;6.05;2.50;;;;;;;6.93;100.00;100852.88;5038161;28;20208;-76
2023/02/02 03:14:08;;;;;;;8.18;3.10;;;;;;;6.97;100.00;100857.25;5039673;28;20228;-76
2023/02/02 03:16:35;;;;;;;3.90;1.92;;;;;;;6.95;100.00;100849.25;5041966;28;20255;-78
2023/02/02 03:19:04;;;;;;;8.57;3.45;;;;;;;6.98;100.00;100845.63;5040406;28;20675;-76
2023/02/02 03:21:30;;;;;;;5.93;2.90;;;;;;;6.97;100.00;100846.53;5039832;28;20209;-77
2023/02/02 03:23:57;;;;;;;5.47;2.83;;;;;;;6.97;100.00;100854.59;5044843;28;20252;-77
2023/02/02 03:26:25;;;;;;;9.35;3.05;;;;;;;7.03;100.00;100866.03;5044208;28;20207;-76
2023/02/02 03:28:53;;;;;;;7.22;2.47;;;;;;;7.03;100.00;100863.34;5039268;28;20678;-77
2023/02/02 03:31:20;;;;;;;6.65;3.10;;;;;;;6.93;100.00;100866.28;5037569;28;20549;-76
2023/02/02 03:33:46;;;;;;;5.15;2.85;;;;;;;6.93;100.00;100860.91;5061208;22;20243;-73
2023/02/02 03:36:15;;;;;;;5.93;2.35;;;;;;;6.96;100.00;100863.50;5077742;28;20232;-74
2023/02/02 03:38:41;;;;;;;7.25;3.20;;;;;;;6.92;100.00;100860.03;5044369;28;20201;-74
2023/02/02 03:41:08;;;;;;;10.05;2.28;;;;;;;6.93;100.00;100861.78;5038096;28;20209;-75
2023/02/02 03:43:34;;;;;;;9.88;2.60;;;;;;;6.97;100.00;100859.94;5035798;28;20607;-74
2023/02/02 03:46:03;;;;;;;6.15;2.65;;;;;;;6.95;100.00;100872.47;5035010;28;20224;-75
2023/02/02 03:48:31;;;;;;;6.85;2.97;;;;;;;6.98;100.00;100856.31;5035193;28;20208;-74
2023/02/02 03:50:57;;;;;;;8.00;2.50;;;;;;;6.96;100.00;100851.00;5037791;28;20210;-75
2023/02/02 03:53:25;;;;;;;4.43;2.83;;;;;;;7.00;100.00;100859.84;5037963;28;20197;-74
2023/02/02 03:55:52;;;;;;;6.50;2.15;;;;;;;7.04;100.00;100862.41;5037251;28;20224;-74
2023/02/02 03:58:20;;;;;;;5.43;2.42;;;;;;;7.04;100.00;100856.19;5035952;28;20578;-72
2023/02/02 04:00:47;;;;;;;4.68;2.33;;;;;;;7.02;100.00;100858.91;5035073;28;20201;-73
2023/02/02 04:03:14;;;;;;;7.35;2.80;;;;;;;7.05;100.00;100858.81;5034825;28;20243;-74
2023/02/02 04:05:40;;;;;;;9.23;3.17;;;;;;;7.06;100.00;100854.38;5035482;28;20237;-75
2023/02/02 04:08:07;;;;;;;4.35;2.50;;;;;;;7.09;100.00;100848.91;5035264;28;20204;-75
2023/02/02 04:10:35;;;;;;;3.88;2.20;;;;;;;7.15;100.00;100859.50;5051225;28;20243;-74
2023/02/02 04:13:01;;;;;;;4.95;2.53;;;;;;;7.20;100.00;100862.94;5051578;28;20265;-75
2023/02/02 04:15:28;;;;;;;5.53;2.50;;;;;;;7.19;100.00;100863.88;5037391;28;20228;-75
2023/02/02 04:17:54;;;;;;;3.85;2.00;;;;;;;7.25;100.00;100865.50;5034062;28;20295;-74
2023/02/02 04:20:21;;;;;;;7.40;2.88;;;;;;;7.23;100.00;100870.88;5034906;28;20577;-74
2023/02/02 04:22:47;;;;;;;5.70;2.85;;;;;;;7.25;100.00;100866.38;5034728;28;20593;-74
2023/02/02 04:25:14;;;;;;;6.85;2.72;;;;;;;7.31;100.00;100866.25;5034536;28;20224;-74
2023/02/02 04:27:42;;;;;;;8.77;3.10;;;;;;;7.31;100.00;100868.91;5034243;28;20677;-75
2023/02/02 04:30:10;;;;;;;6.80;3.38;;;;;;;7.36;100.00;100878.66;5034309;28;20297;-74
2023/02/02 04:32:36;;;;;;;4.25;2.67;;;;;;;7.35;100.00;100880.47;5034492;28;20209;-74
2023/02/02 04:35:03;;;;;;;7.72;2.60;;;;;;;7.38;100.00;100871.47;5034616;28;20231;-75
2023/02/02 04:37:30;;;;;;;7.88;2.90;;;;;;;7.38;100.00;100876.81;5034516;28;20197;-74
2023/02/02 04:39:57;;;;;;;7.30;2.78;;;;;;;7.38;100.00;100868.78;5034885;28;20236;-75
2023/02/02 04:42:24;;;;;;;3.45;2.00;;;;;;;7.42;100.00;100874.03;5036097;28;20234;-74
2023/02/02 04:44:52;;;;;;;5.03;1.80;;;;;;;7.43;100.00;100873.09;5034487;28;20240;-75
2023/02/02 04:47:18;;;;;;;3.55;2.35;;;;;;;7.48;100.00;100872.97;5034613;28;20655;-74
2023/02/02 04:49:45;;;;;;;7.20;2.47;;;;;;;7.51;100.00;100889.88;5033118;28;20205;-72
2023/02/02 04:52:11;;;;;;;6.20;3.00;;;;;;;7.52;100.00;100891.63;5034415;28;20291;-74
2023/02/02 04:54:38;;;;;;;4.78;2.83;;;;;;;7.53;100.00;100889.84;5039190;28;20796;-73
2023/02/02 04:57:04;;;;;;;7.03;2.45;;;;;;;7.51;100.00;100897.91;5034744;28;20295;-74
2023/02/02 04:59:31;;;;;;;5.25;2.15;;;;;;;7.57;100.00;100898.66;5033687;28;20209;-74
2023/02/02 05:02:01;;;;;;;9.25;2.70;;;;;;;7.51;100.00;100892.56;5034653;28;20198;-74
2023/02/02 05:04:28;;;;;;;5.22;3.05;;;;;;;7.49;100.00;100890.84;5034965;28;20597;-75
2023/02/02 05:06:54;;;;;;;2.60;1.67;;;;;;;7.50;100.00;100889.91;5034361;28;20208;-75
2023/02/02 05:09:21;;;;;;;7.93;3.35;;;;;;;7.51;100.00;100900.59;5033991;28;20218;-73
2023/02/02 05:11:47;;;;;;;3.58;2.50;;;;;;;7.51;100.00;100900.59;5034860;28;20205;-74
2023/02/02 05:14:17;;;;;;;4.90;2.70;;;;;;;7.51;100.00;100899.72;5034570;28;20225;-74
2023/02/02 05:16:44;;;;;;;4.85;2.78;;;;;;;7.52;100.00;100910.38;5035903;28;20601;-76
2023/02/02 05:19:15;;;;;;;4.20;2.70;;;;;;;7.50;100.00;100901.50;5039588;28;20211;-73
2023/02/02 05:21:43;;;;;;;9.88;2.55;;;;;;;7.49;100.00;100909.59;5054971;28;20560;-73
2023/02/02 05:24:10;;;;;;;5.95;2.88;;;;;;;7.47;100.00;100903.38;5054709;28;20258;-72
2023/02/02 05:26:36;;;;;;;6.68;2.88;;;;;;;7.45;100.00;100911.44;5054157;28;20265;-74
2023/02/02 05:29:03;;;;;;;7.03;2.83;;;;;;;7.41;100.00;100920.47;5053051;28;20211;-73
2023/02/02 05:31:30;;;;;;;6.30;3.00;;;;;;;7.42;100.00;100910.66;5054084;28;20200;-74
2023/02/02 05:33:57;;;;;;;8.38;4.35;;;;;;;7.36;100.00;100917.03;5053434;28;20197;-73
2023/02/02 05:36:25;;;;;;;7.57;3.30;;;;;;;7.39;100.00;100922.31;5053390;28;20570;-73
2023/02/02 05:38:51;;;;;;;5.38;2.90;;;;;;;7.36;100.00;100918.84;5052385;28;20205;-73
2023/02/02 05:41:18;;;;;;;8.10;2.92;;;;;;;7.36;100.00;100921.53;5053082;28;20200;-73
2023/02/02 05:43:44;;;;;;;6.38;2.70;;;;;;;7.38;100.00;100919.69;5053691;28;20727;-73
2023/02/02 05:46:12;;;;;;;4.95;2.63;;;;;;;7.44;100.00;100922.19;5059152;28;20303;-73
2023/02/02 05:48:38;;;;;;;6.25;3.00;;;;;;;7.41;100.00;100925.84;5057215;28;20211;-73
2023/02/02 05:51:07;;;;;;;7.50;2.40;;;;;;;7.43;100.00;100940.09;5060676;28;20230;-73
2023/02/02 05:53:35;;;;;;;7.18;2.65;;;;;;;7.40;100.00;100928.56;5060528;28;20206;-74
2023/02/02 05:56:02;;;;;;;3.65;2.70;;;;;;;7.41;100.00;100928.53;5059383;28;20225;-73
2023/02/02 05:58:29;;;;;;;5.22;2.35;;;;;;;7.41;100.00;100941.03;5060047;28;20204;-74
2023/02/02 06:00:55;;;;;;;8.68;2.90;;;;;;;7.41;100.00;100927.66;5059389;28;20212;-75
2023/02/02 06:03:22;;;;;;;4.18;2.40;;;;;;;7.41;100.00;100935.69;5056997;28;20220;-76
2023/02/02 06:05:49;;;;;;;4.93;2.70;;;;;;;7.37;100.00;100932.22;5045682;28;20224;-74
2023/02/02 06:08:15;;;;;;;5.97;2.70;;;;;;;7.39;100.00;100929.47;5054082;28;20203;-75
2023/02/02 06:10:43;;;;;;;4.82;2.65;;;;;;;7.36;100.00;100930.44;5059124;28;20203;-75
2023/02/02 06:13:10;;;;;;;10.80;3.05;;;;;;;7.33;100.00;100933.19;5043804;28;20201;-75
2023/02/02 06:15:37;;;;;;;4.22;2.95;;;;;;;7.36;100.00;100943.84;5040646;28;20235;-76
2023/02/02 06:18:05;;;;;;;4.05;2.50;;;;;;;7.27;100.00;100944.91;5038269;28;20212;-75
2023/02/02 06:20:32;;;;;;;4.57;2.85;;;;;;;7.19;100.00;100933.53;5035122;28;20236;-76
2023/02/02 06:22:58;;;;;;;5.00;2.88;;;;;;;7.12;100.00;100944.41;5038157;28;20680;-75
2023/02/02 06:25:25;;;;;;;3.97;2.20;;;;;;;7.14;100.00;100935.41;5053507;28;20228;-76
2023/02/02 06:27:56;;;;;;;5.68;2.50;;;;;;;7.09;100.00;100930.16;5053065;28;20206;-75
2023/02/02 06:30:23;;;;;;;10.00;3.00;;;;;;;7.16;100.00;100941.59;5052981;28;20215;-76
2023/02/02 06:32:49;;;;;;;5.18;2.72;;;;;;;7.12;100.00;100942.59;5053534;28;20584;-75
2023/02/02 06:35:16;;;;;;;3.63;2.15;;;;;;;7.11;100.00;100951.56;5053979;28;20232;-75
2023/02/02 06:37:43;;;;;;;12.70;3.40;;;;;;;7.11;100.00;100938.16;5042086;28;20208;-76
2023/02/02 06:40:11;;;;;;;5.75;2.75;;;;;;;7.12;100.00;100929.19;5035594;28;20589;-75
2023/02/02 06:42:37;;;;;;;6.38;3.10;;;;;;;7.15;100.00;100952.38;5040184;28;20205;-76
2023/02/02 06:45:06;;;;;;;4.25;2.45;;;;;;;7.16;100.00;100955.00;5042508;28;20250;-75
2023/02/02 06:47:33;;;;;;;6.75;2.83;;;;;;;7.20;100.00;100945.97;5039485;28;20196;-74
2023/02/02 06:50:00;;;;;;;10.52;2.80;;;;;;;7.24;100.00;100946.81;5038900;28;20209;-76
2023/02/02 06:52:26;;;;;;;4.20;2.28;;;;;;;7.31;100.00;100940.38;5038362;28;20201;-77
2023/02/02 06:54:53;;;;;;;4.57;2.78;;;;;;;7.32;100.00;100956.41;5041447;28;20224;-76
2023/02/02 06:57:19;;;;;;;7.90;3.20;;;;;;;7.34;100.00;100953.69;5037897;28;20201;-74
2023/02/02 06:59:46;;;;;;;5.13;2.50;;;;;;;7.38;100.00;100949.16;5036994;28;20209;-76
2023/02/02 07:02:14;;;;;;;5.35;2.50;;;;;;;7.43;100.00;100952.63;5037860;28;20755;-77
2023/02/02 07:04:41;;;;;;;6.30;2.80;;;;;;;7.50;100.00;100947.06;5045278;28;20246;-75
2023/02/02 07:07:07;;;;;;;6.45;2.38;;;;;;;7.60;100.00;100941.47;5044098;28;20216;-75
2023/02/02 07:09:35;;;;;;;9.35;2.78;;;;;;;7.59;100.00;100942.41;5040614;28;20689;-75
2023/02/02 07:12:02;;;;;;;4.15;2.60;;;;;;;7.63;100.00;100936.06;5038299;28;20212;-75
2023/02/02 07:14:28;;;;;;;7.85;3.20;;;;;;;7.69;100.00;100942.16;5038354;28;20654;-75
2023/02/02 07:16:55;;;;;;;4.38;2.13;;;;;;;7.66;100.00;100942.19;5037245;28;20288;-75
2023/02/02 07:19:22;;;;;;;11.10;3.40;;;;;;;7.72;100.00;100947.41;5036570;28;20211;-75
2023/02/02 07:21:49;;;;;;;10.13;2.85;;;;;;;7.68;100.00;100924.28;5038410;28;20205;-77
2023/02/02 07:24:16;;;;;;;5.15;3.22;;;;;;;7.70;100.00;100941.22;5040125;28;20235;-76
2023/02/02 07:26:42;;;;;;;9.00;2.72;;;;;;;7.73;100.00;100946.53;5038629;28;20688;-76
2023/02/02 07:29:12;;;;;;;5.22;2.60;;;;;;;7.75;100.00;100951.81;5038522;28;20208;-75
2023/02/02 07:31:40;;;;;;;9.02;3.25;;;;;;;7.73;100.00;100957.25;5043384;28;20200;-75
2023/02/02 07:34:07;;;;;;;5.10;2.08;;;;;;;7.76;100.00;100963.44;5038430;28;20236;-75
2023/02/02 07:36:35;;;;;;;5.28;2.35;;;;;;;7.78;100.00;100966.94;5039963;28;20204;-76
2023/02/02 07:39:04;;;;;;;8.75;2.67;;;;;;;7.70;100.00;100959.09;5058731;28;20213;-77
2023/02/02 07:41:31;;;;;;;9.65;2.28;;;;;;;7.78;100.00;100967.84;5061272;28;20244;-75
2023/02/02 07:43:57;;;;;;;5.45;2.55;;;;;;;7.77;100.00;100975.94;5063459;28;20251;-75
2023/02/02 07:46:24;;;;;;;3.22;2.13;;;;;;;7.78;100.00;100975.00;5062538;28;20264;-74
2023/02/02 07:48:53;;;;;;;8.13;2.70;;;;;;;7.80;100.00;100973.16;5061868;28;20236;-75
2023/02/02 07:51:19;;;;;;;4.60;2.67;;;;;;;7.81;100.00;100973.13;5060560;28;20239;-75
2023/02/02 07:53:49;;;;;;;7.35;2.60;;;;;;;7.84;100.00;100982.91;5057327;28;20236;-75
2023/02/02 07:56:19;;;;;;;5.45;2.50;;;;;;;7.86;100.00;100971.22;5053157;28;20208;-76
2023/02/02 07:58:46;;;;;;;3.15;1.95;;;;;;;7.86;100.00;100975.69;5055555;28;20637;-75
2023/02/02 08:01:14;;;;;;;4.80;2.42;;;;;;;7.83;100.00;100975.78;5055546;28;20209;-76
2023/02/02 08:03:42;;;;;;;4.57;2.25;;;;;;;7.89;100.00;100968.47;5055444;28;20258;-75
2023/02/02 08:06:14;;;;;;;5.82;2.60;;;;;;;7.88;100.00;100973.84;5054790;28;20207;-76
2023/02/02 08:08:41;;;;;;;7.05;2.90;;;;;;;7.85;100.00;100961.41;5057005;28;20200;-74
2023/02/02 08:11:11;;;;;;;7.85;2.80;;;;;;;7.90;100.00;100961.28;5057151;28;20215;-77
2023/02/02 08:13:38;;;;;;;7.70;2.90;;;;;;;7.90;100.00;100972.03;5057168;28;20209;-75
2023/02/02 08:16:06;;;;;;;11.07;2.78;;;;;;;7.92;100.00;100972.88;5059276;28;20215;-76
2023/02/02 08:18:33;;;;;;;5.47;2.90;;;;;;;7.97;100.00;100962.91;5058608;28;20254;-76
2023/02/02 08:21:00;;;;;;;8.10;3.60;;;;;;;7.99;100.00;100976.28;5057730;28;20254;-76
2023/02/02 08:23:27;;;;;;;3.17;2.53;;;;;;;8.05;100.00;100977.00;5057697;28;20319;-75
2023/02/02 08:25:54;;;;;;;5.82;2.88;;;;;;;8.07;100.00;100980.53;5063259;28;20635;-75
2023/02/02 08:28:21;;;;;;;5.32;3.20;;;;;;;8.05;100.00;100979.69;5061243;28;20208;-75
2023/02/02 08:30:48;;;;;;;6.32;2.78;;;;;;;8.03;100.00;100994.94;5060105;28;20204;-74
2023/02/02 08:33:15;;;;;;;8.73;2.55;;;;;;;8.07;100.00;100995.72;5059095;28;20238;-76
2023/02/02 08:35:42;;;;;;;10.70;3.83;;;;;;;8.04;100.00;101002.06;5060029;28;20244;-77
2023/02/02 08:38:09;;;;;;;5.32;3.17;;;;;;;8.11;100.00;100997.41;5058284;28;20213;-76
2023/02/02 08:40:35;;;;;;;7.88;2.35;;;;;;;8.15;100.00;101001.78;5059283;28;20210;-76
2023/02/02 08:43:02;;;;;;;8.00;1.90;;;;;;;8.17;100.00;100999.94;5061315;28;20202;-75
2023/02/02 08:45:30;;;;;;;6.82;2.60;;;;;;;8.22;100.00;100995.34;5073573;28;20596;-76
2023/02/02 08:47:57;;;;;;;5.28;2.15;;;;;;;8.28;100.00;100989.81;5060758;28;20210;-76
2023/02/02 08:50:23;;;;;;;5.32;2.53;;;;;;;8.32;100.00;101001.31;5056561;28;20231;-76
2023/02/02 08:52:50;;;;;;;8.30;2.92;;;;;;;8.38;100.00;101005.66;5061138;28;20202;-76
2023/02/02 08:55:16;;;;;;;7.88;2.63;;;;;;;8.52;100.00;101004.44;5055143;28;20300;-75
2023/02/02 08:57:43;;;;;;;5.20;2.40;;;;;;;8.48;100.00;101000.06;5056265;28;20681;-75
2023/02/02 09:00:11;;;;;;;8.27;2.83;;;;;;;8.48;100.00;101000.06;5055292;28;20198;-74
2023/02/02 09:02:39;;;;;;;9.00;2.97;;;;;;;8.54;100.00;101002.53;5055203;28;20289;-75
2023/02/02 09:05:06;;;;;;;4.63;2.25;;;;;;;8.63;100.00;101016.66;5054786;28;20311;-75
2023/02/02 09:07:32;;;;;;;7.07;3.05;;;;;;;8.70;100.00;101012.88;5054736;28;20203;-75
2023/02/02 09:09:59;;;;;;;4.32;2.25;;;;;;;8.68;100.00;101014.72;5060231;28;20207;-77
2023/02/02 09:12:26;;;;;;;3.53;2.22;;;;;;;8.63;100.00;101016.66;5062824;28;20201;-75
2023/02/02 09:14:52;;;;;;;7.10;2.47;;;;;;;8.64;100.00;101026.47;5061257;28;20228;-76
2023/02/02 09:17:19;;;;;;;4.97;2.35;;;;;;;8.65;100.00;101015.69;5061070;28;20288;-75
2023/02/02 09:19:47;;;;;;;6.28;2.58;;;;;;;8.60;100.00;101022.13;5060422;28;20217;-75
2023/02/02 09:22:13;;;;;;;8.90;2.55;;;;;;;8.65;100.00;101009.44;5060979;28;20199;-75
2023/02/02 09:24:40;;;;;;;4.85;2.42;;;;;;;8.58;100.00;101021.28;5057489;28;20224;-75
2023/02/02 09:27:07;;;;;;;7.47;2.45;;;;;;;8.62;100.00;101009.53;5053760;28;20209;-75
2023/02/02 09:29:33;;;;;;;5.20;2.53;;;;;;;8.66;100.00;101017.47;5054321;28;20204;-75
2023/02/02 09:32:00;;;;;;;8.60;2.78;;;;;;;8.67;100.00;101019.22;5054090;28;20202;-76
2023/02/02 09:34:27;;;;;;;6.50;2.58;;;;;;;8.73;100.00;101024.41;5077346;22;20260;-78
2023/02/02 09:36:55;;;;;;;4.70;2.83;;;;;;;8.73;100.00;101024.41;5061786;28;20200;-77
2023/02/02 09:39:21;;;;;;;6.15;2.20;;;;;;;8.81;100.00;101024.19;5045186;28;20274;-77
2023/02/02 09:42:05;;;;;;;8.32;2.42;;;;;;;8.86;100.00;101030.31;5046088;28;20574;-77
2023/02/02 09:44:56;;;;;;;6.03;2.75;;;;;;;8.93;100.00;101031.91;5046243;28;20256;-78
2023/02/02 09:47:24;;;;;;;8.23;2.60;;;;;;;8.97;100.00;101038.06;5044877;28;20256;-78
2023/02/02 09:49:59;;;;;;;5.65;2.00;;;;;;;8.97;100.00;101043.44;5044191;28;20209;-76
2023/02/02 09:52:30;;;;;;;4.95;2.45;;;;;;;8.97;100.00;101047.00;5044516;28;20196;-78
2023/02/02 09:55:00;;;;;;;10.80;2.78;;;;;;;8.90;100.00;101056.16;5045758;28;20297;-77
2023/02/02 09:57:33;;;;;;;7.13;2.25;;;;;;;8.83;100.00;101059.09;5046807;28;20303;-78
2023/02/02 10:00:00;;;;;;;5.18;2.20;;;;;;;8.85;100.00;101066.16;5042099;28;20218;-77
2023/02/02 10:02:32;;;;;;;4.85;1.95;;;;;;;8.81;100.00;101074.34;5044240;28;20221;-77
2023/02/02 10:05:07;;;;;;;5.05;2.22;;;;;;;8.95;100.00;101065.00;5040335;28;20225;-80
2023/02/02 10:07:41;;;;;;;4.35;1.90;;;;;;;9.04;100.00;101079.09;5039163;28;20189;-79
2023/02/02 10:10:15;;;;;;;4.10;2.15;;;;;;;9.23;100.00;101069.59;5039993;28;20265;-78
2023/02/02 10:12:47;;;;;;;4.72;1.30;;;;;;;9.38;100.00;101087.06;5048440;28;20229;-79
2023/02/02 10:15:22;;;;;;;4.57;1.70;;;;;;;9.29;100.00;101092.69;5039091;28;20224;-79
2023/02/02 10:17:53;;;;;;;5.45;1.95;;;;;;;9.24;100.00;101090.13;5041273;28;20275;-78
2023/02/02 10:20:38;;;;;;;3.97;1.73;;;;;;;9.27;100.00;101091.84;5041562;28;20574;-78
2023/02/02 10:23:18;;;;;;;6.60;1.80;;;;;;;9.48;100.00;101090.38;5040320;28;20632;-78
2023/02/02 10:25:54;;;;;;;6.55;1.98;;;;;;;9.39;100.00;101095.06;5039986;28;20325;-79
2023/02/02 10:28:29;;;;;;;6.72;1.67;;;;;;;9.37;100.00;101099.63;5039754;28;20208;-78
2023/02/02 10:31:01;;;;;;;5.38;1.98;;;;;;;9.26;100.00;101093.66;5050322;28;20333;-76
2023/02/02 10:33:36;;;;;;;5.70;1.70;;;;;;;9.35;100.00;101098.78;5058425;28;20225;-79
2023/02/02 10:36:16;;;;;;;2.92;1.52;;;;;;;9.56;100.00;101094.56;5060149;28;20215;-79
2023/02/02 10:38:52;;;;;;;3.17;1.52;;;;;;;9.88;100.00;101091.81;5079164;28;20188;-79
2023/02/02 10:41:27;;;;;;;4.80;1.50;;;;;;;10.03;100.00;101080.56;5078530;28;20199;-77
2023/02/02 10:44:14;;;;;;;3.33;1.50;;;;;;;10.08;100.00;101093.88;5070655;28;20192;-76
2023/02/02 10:46:45;;;;;;;4.13;2.05;;;;;;;9.82;100.00;101085.72;5070287;28;20204;-77
2023/02/02 10:49:19;;;;;;;4.10;1.77;;;;;;;9.76;100.00;101087.72;5067945;28;20204;-77
2023/02/02 10:51:53;;;;;;;2.50;1.50;;;;;;;9.82;100.00;101087.53;5061421;28;20262;-79
2023/02/02 10:54:33;;;;;;;2.70;1.70;;;;;;;9.97;100.00;101091.53;5059910;28;20199;-78
2023/02/02 10:57:05;;;;;;;4.20;2.00;;;;;;;9.78;100.00;101077.78;5066099;28;20617;-78
2023/02/02 10:59:33;;;;;;;3.25;1.55;;;;;;;9.71;100.00;101078.91;5060902;28;20208;-78
2023/02/02 11:01:59;;;;;;;6.72;1.33;;;;;;;9.55;100.00;101084.75;5062300;28;20272;-79
2023/02/02 11:07:18;;;;;;;3.03;1.50;;;;;;;9.48;100.00;101085.88;5061888;28;20260;-77
2023/02/02 11:09:46;;;;;;;2.33;1.20;;;;;;;9.52;100.00;101092.91;5060376;28;20192;-78
2023/02/02 11:12:20;;;;;;;2.95;1.75;;;;;;;9.53;100.00;101093.78;5062009;28;20268;-78
2023/02/02 11:14:51;;;;;;;2.15;1.00;;;;;;;9.29;100.00;101081.94;5061235;28;20316;-79
2023/02/02 11:17:20;;;;;;;3.95;1.60;;;;;;;9.10;100.00;101101.28;5059437;28;20211;-79
2023/02/02 11:19:48;;;;;;;2.35;1.40;;;;;;;9.08;100.00;101095.06;5059992;28;20208;-78
2023/02/02 11:22:27;;;;;;;4.13;1.45;;;;;;;8.96;100.00;101088.25;5059822;28;20201;-79
2023/02/02 11:24:55;;;;;;;3.47;1.23;;;;;;;9.02;100.00;101102.44;5061566;28;20282;-77
2023/02/02 11:27:24;;;;;;;3.75;1.48;;;;;;;8.98;100.00;101090.91;5060222;28;20215;-78
2023/02/02 11:29:52;;;;;;;3.05;1.52;;;;;;;8.86;100.00;101092.09;5060088;28;20294;-79
2023/02/02 11:32:27;;;;;;;3.75;1.30;;;;;;;8.76;100.00;101098.66;5063838;28;20200;-79
2023/02/02 11:35:15;;;;;;;3.53;1.50;;;;;;;8.63;100.00;101091.84;5063294;28;20236;-78
2023/02/02 11:38:00;;;;;;;2.10;1.45;;;;;;;8.58;100.00;101099.16;5051355;28;20212;-79
2023/02/02 11:40:38;;;;;;;2.13;1.48;;;;;;;8.47;100.00;101097.59;5042512;28;20683;-80
2023/02/02 11:43:14;;;;;;;4.10;1.85;;;;;;;8.44;100.00;101111.13;5041613;28;20232;-79
2023/02/02 11:45:42;;;;;;;5.18;1.35;;;;;;;8.48;100.00;101101.16;5047084;28;20268;-78